sensor_id;sensor_type;location;lat;lon;timestamp;P1;durP1;ratioP1;P2;durP2;ratioP2
8831;SDS011;4452;50.756;4.472;2022-09-09T00:02:20;14.23;;;3.83;;
8831;SDS011;4452;50.756;4.472;2022-09-09T00:04:58;12.32;;;3.95;;
8831;SDS011;4452;50.756;4.472;2022-09-09T00:07:40;7.28;;;3.17;;
8831;SDS011;4452;50.756;4.472;2022-09-09T00:18:15;8.30;;;3.25;;
8831;SDS011;4452;50.756;4.472;2022-09-09T00:21:03;15.32;;;4.22;;
8831;SDS011;4452;50.756;4.472;2022-09-09T00:23:37;19.77;;;4.10;;
8831;SDS011;4452;50.756;4.472;2022-09-09T00:26:14;5.00;;;3.08;;
8831;SDS011;4452;50.756;4.472;2022-09-09T00:29:05;12.10;;;3.63;;
8831;SDS011;4452;50.756;4.472;2022-09-09T00:31:44;15.20;;;4.03;;
8831;SDS011;4452;50.756;4.472;2022-09-09T00:34:16;20.88;;;3.80;;
8831;SDS011;4452;50.756;4.472;2022-09-09T00:36:45;9.70;;;3.70;;
8831;SDS011;4452;50.756;4.472;2022-09-09T00:39:34;11.48;;;3.70;;
8831;SDS011;4452;50.756;4.472;2022-09-09T00:44:46;11.27;;;3.90;;
8831;SDS011;4452;50.756;4.472;2022-09-09T00:50:20;9.52;;;3.30;;
8831;SDS011;4452;50.756;4.472;2022-09-09T00:55:45;16.42;;;3.58;;
8831;SDS011;4452;50.756;4.472;2022-09-09T00:58:18;11.15;;;4.10;;
8831;SDS011;4452;50.756;4.472;2022-09-09T01:00:44;17.92;;;4.40;;
8831;SDS011;4452;50.756;4.472;2022-09-09T01:03:35;13.80;;;3.85;;
8831;SDS011;4452;50.756;4.472;2022-09-09T01:06:20;10.93;;;4.00;;
8831;SDS011;4452;50.756;4.472;2022-09-09T01:11:55;7.72;;;3.83;;
8831;SDS011;4452;50.756;4.472;2022-09-09T01:17:01;14.57;;;4.30;;
8831;SDS011;4452;50.756;4.472;2022-09-09T01:20:10;16.48;;;4.15;;
8831;SDS011;4452;50.756;4.472;2022-09-09T01:28:10;15.48;;;4.30;;
8831;SDS011;4452;50.756;4.472;2022-09-09T01:30:41;12.50;;;4.47;;
8831;SDS011;4452;50.756;4.472;2022-09-09T01:33:09;18.63;;;4.50;;
8831;SDS011;4452;50.756;4.472;2022-09-09T01:35:43;13.03;;;4.37;;
8831;SDS011;4452;50.756;4.472;2022-09-09T01:38:11;11.73;;;4.70;;
8831;SDS011;4452;50.756;4.472;2022-09-09T01:40:38;25.73;;;5.75;;
8831;SDS011;4452;50.756;4.472;2022-09-09T01:43:04;11.02;;;4.60;;
8831;SDS011;4452;50.756;4.472;2022-09-09T01:45:31;17.50;;;4.70;;
8831;SDS011;4452;50.756;4.472;2022-09-09T01:47:57;21.52;;;5.13;;
8831;SDS011;4452;50.756;4.472;2022-09-09T01:50:24;13.98;;;4.57;;
8831;SDS011;4452;50.756;4.472;2022-09-09T01:52:51;14.13;;;4.40;;
8831;SDS011;4452;50.756;4.472;2022-09-09T01:55:24;19.80;;;5.35;;
8831;SDS011;4452;50.756;4.472;2022-09-09T01:58:15;21.05;;;5.05;;
8831;SDS011;4452;50.756;4.472;2022-09-09T02:01:06;17.77;;;4.97;;
8831;SDS011;4452;50.756;4.472;2022-09-09T02:03:53;17.23;;;4.97;;
8831;SDS011;4452;50.756;4.472;2022-09-09T02:09:00;21.58;;;4.70;;
8831;SDS011;4452;50.756;4.472;2022-09-09T02:11:29;24.27;;;5.93;;
8831;SDS011;4452;50.756;4.472;2022-09-09T02:14:03;21.08;;;5.53;;
8831;SDS011;4452;50.756;4.472;2022-09-09T02:19:26;17.75;;;4.90;;
8831;SDS011;4452;50.756;4.472;2022-09-09T02:22:04;17.20;;;4.90;;
8831;SDS011;4452;50.756;4.472;2022-09-09T02:24:32;28.33;;;5.40;;
8831;SDS011;4452;50.756;4.472;2022-09-09T02:27:01;13.52;;;4.25;;
8831;SDS011;4452;50.756;4.472;2022-09-09T02:29:34;17.67;;;4.72;;
8831;SDS011;4452;50.756;4.472;2022-09-09T02:32:05;18.38;;;4.75;;
8831;SDS011;4452;50.756;4.472;2022-09-09T02:34:35;19.45;;;4.85;;
8831;SDS011;4452;50.756;4.472;2022-09-09T02:37:06;17.23;;;4.60;;
8831;SDS011;4452;50.756;4.472;2022-09-09T02:39:33;18.55;;;4.82;;
8831;SDS011;4452;50.756;4.472;2022-09-09T02:41:58;25.02;;;5.30;;
8831;SDS011;4452;50.756;4.472;2022-09-09T02:44:24;23.02;;;4.60;;
8831;SDS011;4452;50.756;4.472;2022-09-09T02:50:00;23.88;;;4.88;;
8831;SDS011;4452;50.756;4.472;2022-09-09T02:55:05;32.72;;;5.35;;
8831;SDS011;4452;50.756;4.472;2022-09-09T02:57:36;21.83;;;4.97;;
8831;SDS011;4452;50.756;4.472;2022-09-09T03:00:03;21.33;;;5.15;;
8831;SDS011;4452;50.756;4.472;2022-09-09T03:02:30;23.85;;;5.20;;
8831;SDS011;4452;50.756;4.472;2022-09-09T03:04:55;20.60;;;5.28;;
8831;SDS011;4452;50.756;4.472;2022-09-09T03:07:21;20.00;;;4.82;;
8831;SDS011;4452;50.756;4.472;2022-09-09T03:09:47;18.98;;;4.15;;
8831;SDS011;4452;50.756;4.472;2022-09-09T03:12:13;20.27;;;4.90;;
8831;SDS011;4452;50.756;4.472;2022-09-09T03:14:39;28.33;;;4.68;;
8831;SDS011;4452;50.756;4.472;2022-09-09T03:17:05;19.10;;;4.38;;
8831;SDS011;4452;50.756;4.472;2022-09-09T03:19:31;16.95;;;4.60;;
8831;SDS011;4452;50.756;4.472;2022-09-09T03:21:57;20.35;;;4.78;;
8831;SDS011;4452;50.756;4.472;2022-09-09T03:24:23;20.27;;;4.88;;
8831;SDS011;4452;50.756;4.472;2022-09-09T03:26:49;28.90;;;5.72;;
8831;SDS011;4452;50.756;4.472;2022-09-09T03:29:15;11.95;;;3.78;;
8831;SDS011;4452;50.756;4.472;2022-09-09T03:31:43;16.48;;;4.20;;
8831;SDS011;4452;50.756;4.472;2022-09-09T03:34:09;22.05;;;4.22;;
8831;SDS011;4452;50.756;4.472;2022-09-09T03:36:35;22.05;;;4.38;;
8831;SDS011;4452;50.756;4.472;2022-09-09T03:39:01;21.52;;;4.80;;
8831;SDS011;4452;50.756;4.472;2022-09-09T03:41:28;31.65;;;4.50;;
8831;SDS011;4452;50.756;4.472;2022-09-09T03:43:54;15.00;;;4.45;;
8831;SDS011;4452;50.756;4.472;2022-09-09T03:46:21;19.65;;;4.88;;
8831;SDS011;4452;50.756;4.472;2022-09-09T03:48:48;21.58;;;4.70;;
8831;SDS011;4452;50.756;4.472;2022-09-09T03:51:14;16.38;;;4.47;;
8831;SDS011;4452;50.756;4.472;2022-09-09T03:53:41;19.83;;;4.68;;
8831;SDS011;4452;50.756;4.472;2022-09-09T03:56:08;15.40;;;4.57;;
8831;SDS011;4452;50.756;4.472;2022-09-09T03:58:34;21.10;;;4.05;;
8831;SDS011;4452;50.756;4.472;2022-09-09T04:01:02;29.05;;;4.88;;
8831;SDS011;4452;50.756;4.472;2022-09-09T04:03:30;18.52;;;4.88;;
8831;SDS011;4452;50.756;4.472;2022-09-09T04:05:57;28.63;;;6.15;;
8831;SDS011;4452;50.756;4.472;2022-09-09T04:08:24;22.17;;;5.32;;
8831;SDS011;4452;50.756;4.472;2022-09-09T04:10:51;20.27;;;5.32;;
8831;SDS011;4452;50.756;4.472;2022-09-09T04:13:17;24.33;;;5.50;;
8831;SDS011;4452;50.756;4.472;2022-09-09T04:15:49;21.70;;;5.43;;
8831;SDS011;4452;50.756;4.472;2022-09-09T04:18:20;16.08;;;5.07;;
8831;SDS011;4452;50.756;4.472;2022-09-09T04:20:46;22.60;;;5.30;;
8831;SDS011;4452;50.756;4.472;2022-09-09T04:23:13;35.13;;;5.65;;
8831;SDS011;4452;50.756;4.472;2022-09-09T04:25:43;23.98;;;4.22;;
8831;SDS011;4452;50.756;4.472;2022-09-09T04:28:10;22.70;;;4.93;;
8831;SDS011;4452;50.756;4.472;2022-09-09T04:30:35;14.25;;;3.70;;
8831;SDS011;4452;50.756;4.472;2022-09-09T04:33:01;16.60;;;4.63;;
8831;SDS011;4452;50.756;4.472;2022-09-09T04:35:27;21.15;;;5.57;;
8831;SDS011;4452;50.756;4.472;2022-09-09T04:37:52;20.95;;;5.70;;
8831;SDS011;4452;50.756;4.472;2022-09-09T04:40:18;31.23;;;5.80;;
8831;SDS011;4452;50.756;4.472;2022-09-09T04:42:43;17.25;;;5.32;;
8831;SDS011;4452;50.756;4.472;2022-09-09T04:45:09;22.52;;;5.55;;
8831;SDS011;4452;50.756;4.472;2022-09-09T04:47:36;18.25;;;5.13;;
8831;SDS011;4452;50.756;4.472;2022-09-09T04:50:02;30.38;;;5.65;;
8831;SDS011;4452;50.756;4.472;2022-09-09T04:52:28;14.07;;;4.35;;
8831;SDS011;4452;50.756;4.472;2022-09-09T04:54:53;23.88;;;6.05;;
8831;SDS011;4452;50.756;4.472;2022-09-09T04:57:19;17.02;;;5.30;;
8831;SDS011;4452;50.756;4.472;2022-09-09T04:59:45;22.50;;;6.15;;
8831;SDS011;4452;50.756;4.472;2022-09-09T05:02:11;21.25;;;5.85;;
8831;SDS011;4452;50.756;4.472;2022-09-09T05:04:37;16.98;;;4.25;;
8831;SDS011;4452;50.756;4.472;2022-09-09T05:07:02;17.77;;;4.70;;
8831;SDS011;4452;50.756;4.472;2022-09-09T05:09:28;23.67;;;5.72;;
8831;SDS011;4452;50.756;4.472;2022-09-09T05:11:55;17.08;;;4.97;;
8831;SDS011;4452;50.756;4.472;2022-09-09T05:14:21;19.83;;;5.75;;
8831;SDS011;4452;50.756;4.472;2022-09-09T05:16:47;22.77;;;5.95;;
8831;SDS011;4452;50.756;4.472;2022-09-09T05:19:14;12.27;;;4.05;;
8831;SDS011;4452;50.756;4.472;2022-09-09T05:21:40;10.80;;;4.00;;
8831;SDS011;4452;50.756;4.472;2022-09-09T05:24:06;23.17;;;5.70;;
8831;SDS011;4452;50.756;4.472;2022-09-09T05:26:32;18.42;;;4.47;;
8831;SDS011;4452;50.756;4.472;2022-09-09T05:28:58;30.60;;;5.28;;
8831;SDS011;4452;50.756;4.472;2022-09-09T05:31:25;20.83;;;4.70;;
8831;SDS011;4452;50.756;4.472;2022-09-09T05:33:52;15.57;;;4.45;;
8831;SDS011;4452;50.756;4.472;2022-09-09T05:36:19;16.63;;;3.63;;
8831;SDS011;4452;50.756;4.472;2022-09-09T05:38:46;22.67;;;5.35;;
8831;SDS011;4452;50.756;4.472;2022-09-09T05:41:12;18.80;;;5.10;;
8831;SDS011;4452;50.756;4.472;2022-09-09T05:43:40;18.27;;;5.32;;
8831;SDS011;4452;50.756;4.472;2022-09-09T05:46:09;13.18;;;3.42;;
8831;SDS011;4452;50.756;4.472;2022-09-09T05:48:40;18.52;;;4.60;;
8831;SDS011;4452;50.756;4.472;2022-09-09T05:51:08;24.05;;;3.88;;
8831;SDS011;4452;50.756;4.472;2022-09-09T05:53:40;12.80;;;3.10;;
8831;SDS011;4452;50.756;4.472;2022-09-09T05:56:13;19.42;;;4.55;;
8831;SDS011;4452;50.756;4.472;2022-09-09T05:58:44;13.40;;;4.05;;
8831;SDS011;4452;50.756;4.472;2022-09-09T06:01:18;16.98;;;4.15;;
8831;SDS011;4452;50.756;4.472;2022-09-09T06:03:46;12.82;;;3.78;;
8831;SDS011;4452;50.756;4.472;2022-09-09T06:06:14;11.55;;;4.13;;
8831;SDS011;4452;50.756;4.472;2022-09-09T06:08:47;19.33;;;3.80;;
8831;SDS011;4452;50.756;4.472;2022-09-09T06:11:16;12.48;;;3.72;;
8831;SDS011;4452;50.756;4.472;2022-09-09T06:13:45;14.55;;;3.58;;
8831;SDS011;4452;50.756;4.472;2022-09-09T06:16:14;21.25;;;3.30;;
8831;SDS011;4452;50.756;4.472;2022-09-09T06:18:43;19.30;;;3.83;;
8831;SDS011;4452;50.756;4.472;2022-09-09T06:21:26;15.27;;;3.58;;
8831;SDS011;4452;50.756;4.472;2022-09-09T06:23:54;19.42;;;3.58;;
8831;SDS011;4452;50.756;4.472;2022-09-09T06:26:21;16.83;;;4.13;;
8831;SDS011;4452;50.756;4.472;2022-09-09T06:28:49;21.00;;;4.00;;
8831;SDS011;4452;50.756;4.472;2022-09-09T06:31:17;10.77;;;3.00;;
8831;SDS011;4452;50.756;4.472;2022-09-09T06:33:51;12.15;;;2.75;;
8831;SDS011;4452;50.756;4.472;2022-09-09T06:38:45;11.65;;;3.30;;
8831;SDS011;4452;50.756;4.472;2022-09-09T06:41:11;22.08;;;4.28;;
8831;SDS011;4452;50.756;4.472;2022-09-09T06:43:38;16.20;;;3.10;;
8831;SDS011;4452;50.756;4.472;2022-09-09T06:46:06;12.93;;;3.40;;
8831;SDS011;4452;50.756;4.472;2022-09-09T06:48:34;14.50;;;2.67;;
8831;SDS011;4452;50.756;4.472;2022-09-09T06:51:04;9.23;;;2.72;;
8831;SDS011;4452;50.756;4.472;2022-09-09T06:53:31;14.05;;;3.70;;
8831;SDS011;4452;50.756;4.472;2022-09-09T06:56:02;17.55;;;3.95;;
8831;SDS011;4452;50.756;4.472;2022-09-09T06:58:40;9.43;;;2.33;;
8831;SDS011;4452;50.756;4.472;2022-09-09T07:01:10;7.85;;;2.97;;
8831;SDS011;4452;50.756;4.472;2022-09-09T07:03:37;9.60;;;2.70;;
8831;SDS011;4452;50.756;4.472;2022-09-09T07:06:04;8.45;;;2.35;;
8831;SDS011;4452;50.756;4.472;2022-09-09T07:08:30;14.57;;;2.88;;
8831;SDS011;4452;50.756;4.472;2022-09-09T07:11:03;9.57;;;2.53;;
8831;SDS011;4452;50.756;4.472;2022-09-09T07:16:02;8.88;;;2.67;;
8831;SDS011;4452;50.756;4.472;2022-09-09T07:18:39;6.20;;;2.37;;
8831;SDS011;4452;50.756;4.472;2022-09-09T07:21:05;10.60;;;2.90;;
8831;SDS011;4452;50.756;4.472;2022-09-09T07:23:31;12.23;;;2.50;;
8831;SDS011;4452;50.756;4.472;2022-09-09T07:25:58;12.35;;;2.63;;
8831;SDS011;4452;50.756;4.472;2022-09-09T07:28:24;13.23;;;2.47;;
8831;SDS011;4452;50.756;4.472;2022-09-09T07:30:55;12.02;;;3.00;;
8831;SDS011;4452;50.756;4.472;2022-09-09T07:33:26;6.47;;;2.50;;
8831;SDS011;4452;50.756;4.472;2022-09-09T07:35:51;12.07;;;2.72;;
8831;SDS011;4452;50.756;4.472;2022-09-09T07:38:18;10.57;;;3.35;;
8831;SDS011;4452;50.756;4.472;2022-09-09T07:40:45;13.70;;;2.38;;
8831;SDS011;4452;50.756;4.472;2022-09-09T07:43:11;7.72;;;2.35;;
8831;SDS011;4452;50.756;4.472;2022-09-09T07:45:36;6.32;;;2.55;;
8831;SDS011;4452;50.756;4.472;2022-09-09T07:48:02;10.35;;;2.92;;
8831;SDS011;4452;50.756;4.472;2022-09-09T07:50:28;7.22;;;2.63;;
8831;SDS011;4452;50.756;4.472;2022-09-09T07:52:54;9.02;;;2.40;;
8831;SDS011;4452;50.756;4.472;2022-09-09T07:55:20;16.42;;;3.10;;
8831;SDS011;4452;50.756;4.472;2022-09-09T07:57:50;8.30;;;2.50;;
8831;SDS011;4452;50.756;4.472;2022-09-09T08:00:16;15.70;;;2.92;;
8831;SDS011;4452;50.756;4.472;2022-09-09T08:02:42;12.85;;;2.92;;
8831;SDS011;4452;50.756;4.472;2022-09-09T08:05:07;11.35;;;2.20;;
8831;SDS011;4452;50.756;4.472;2022-09-09T08:07:33;15.57;;;3.30;;
8831;SDS011;4452;50.756;4.472;2022-09-09T08:09:59;14.80;;;2.72;;
8831;SDS011;4452;50.756;4.472;2022-09-09T08:12:24;11.60;;;2.95;;
8831;SDS011;4452;50.756;4.472;2022-09-09T08:14:50;9.95;;;2.53;;
8831;SDS011;4452;50.756;4.472;2022-09-09T08:17:16;6.07;;;1.90;;
8831;SDS011;4452;50.756;4.472;2022-09-09T08:19:42;12.68;;;2.42;;
8831;SDS011;4452;50.756;4.472;2022-09-09T08:22:09;10.30;;;2.88;;
8831;SDS011;4452;50.756;4.472;2022-09-09T08:24:35;8.80;;;2.78;;
8831;SDS011;4452;50.756;4.472;2022-09-09T08:27:01;6.25;;;2.50;;
8831;SDS011;4452;50.756;4.472;2022-09-09T08:29:26;10.43;;;2.60;;
8831;SDS011;4452;50.756;4.472;2022-09-09T08:31:54;15.57;;;2.90;;
8831;SDS011;4452;50.756;4.472;2022-09-09T08:34:22;12.10;;;2.70;;
8831;SDS011;4452;50.756;4.472;2022-09-09T08:36:49;7.60;;;2.22;;
8831;SDS011;4452;50.756;4.472;2022-09-09T08:39:17;8.77;;;2.53;;
8831;SDS011;4452;50.756;4.472;2022-09-09T08:42:03;8.05;;;2.53;;
8831;SDS011;4452;50.756;4.472;2022-09-09T08:58:19;11.40;;;2.90;;
8831;SDS011;4452;50.756;4.472;2022-09-09T09:03:40;5.53;;;1.73;;
8831;SDS011;4452;50.756;4.472;2022-09-09T09:11:18;15.48;;;3.63;;
8831;SDS011;4452;50.756;4.472;2022-09-09T09:14:44;6.63;;;2.92;;
8831;SDS011;4452;50.756;4.472;2022-09-09T09:16:48;11.00;;;3.25;;
8831;SDS011;4452;50.756;4.472;2022-09-09T09:19:19;14.73;;;3.70;;
8831;SDS011;4452;50.756;4.472;2022-09-09T09:21:50;14.77;;;3.30;;
8831;SDS011;4452;50.756;4.472;2022-09-09T09:29:59;16.75;;;2.90;;
8831;SDS011;4452;50.756;4.472;2022-09-09T09:32:38;14.10;;;3.92;;
8831;SDS011;4452;50.756;4.472;2022-09-09T09:35:06;9.77;;;3.40;;
8831;SDS011;4452;50.756;4.472;2022-09-09T09:37:36;15.93;;;3.40;;
8831;SDS011;4452;50.756;4.472;2022-09-09T09:40:12;10.25;;;2.95;;
8831;SDS011;4452;50.756;4.472;2022-09-09T09:42:56;11.00;;;3.22;;
8831;SDS011;4452;50.756;4.472;2022-09-09T09:45:43;12.48;;;3.42;;
8831;SDS011;4452;50.756;4.472;2022-09-09T09:48:10;10.25;;;3.20;;
8831;SDS011;4452;50.756;4.472;2022-09-09T09:50:50;11.68;;;3.05;;
8831;SDS011;4452;50.756;4.472;2022-09-09T09:53:23;13.00;;;3.40;;
8831;SDS011;4452;50.756;4.472;2022-09-09T09:56:01;8.52;;;3.83;;
8831;SDS011;4452;50.756;4.472;2022-09-09T10:01:25;7.63;;;2.60;;
8831;SDS011;4452;50.756;4.472;2022-09-09T10:04:19;17.10;;;3.33;;
8831;SDS011;4452;50.756;4.472;2022-09-09T10:06:48;14.48;;;3.55;;
8831;SDS011;4452;50.756;4.472;2022-09-09T10:09:20;9.52;;;3.65;;
8831;SDS011;4452;50.756;4.472;2022-09-09T10:12:06;12.18;;;3.33;;
8831;SDS011;4452;50.756;4.472;2022-09-09T10:14:39;15.07;;;2.47;;
8831;SDS011;4452;50.756;4.472;2022-09-09T10:17:13;12.57;;;3.95;;
8831;SDS011;4452;50.756;4.472;2022-09-09T10:19:43;10.48;;;3.03;;
8831;SDS011;4452;50.756;4.472;2022-09-09T10:22:25;11.07;;;2.97;;
8831;SDS011;4452;50.756;4.472;2022-09-09T10:25:43;10.52;;;4.15;;
8831;SDS011;4452;50.756;4.472;2022-09-09T10:33:07;13.23;;;4.13;;
8831;SDS011;4452;50.756;4.472;2022-09-09T10:38:17;12.80;;;4.63;;
8831;SDS011;4452;50.756;4.472;2022-09-09T10:41:01;15.82;;;3.60;;
8831;SDS011;4452;50.756;4.472;2022-09-09T10:55:14;15.88;;;3.80;;
8831;SDS011;4452;50.756;4.472;2022-09-09T11:03:21;9.35;;;3.30;;
8831;SDS011;4452;50.756;4.472;2022-09-09T11:05:51;11.07;;;3.30;;
8831;SDS011;4452;50.756;4.472;2022-09-09T11:19:04;8.43;;;2.33;;
8831;SDS011;4452;50.756;4.472;2022-09-09T11:21:40;14.07;;;3.72;;
8831;SDS011;4452;50.756;4.472;2022-09-09T11:24:13;8.60;;;2.80;;
8831;SDS011;4452;50.756;4.472;2022-09-09T11:26:51;7.55;;;2.80;;
8831;SDS011;4452;50.756;4.472;2022-09-09T11:32:10;7.70;;;2.25;;
8831;SDS011;4452;50.756;4.472;2022-09-09T11:34:47;11.05;;;2.97;;
8831;SDS011;4452;50.756;4.472;2022-09-09T11:40:24;4.75;;;2.25;;
8831;SDS011;4452;50.756;4.472;2022-09-09T11:45:37;10.50;;;2.40;;
8831;SDS011;4452;50.756;4.472;2022-09-09T11:48:05;3.85;;;1.80;;
8831;SDS011;4452;50.756;4.472;2022-09-09T11:53:49;7.50;;;2.15;;
8831;SDS011;4452;50.756;4.472;2022-09-09T11:59:05;8.57;;;2.22;;
8831;SDS011;4452;50.756;4.472;2022-09-09T12:01:48;5.47;;;2.20;;
8831;SDS011;4452;50.756;4.472;2022-09-09T12:06:58;4.97;;;2.03;;
8831;SDS011;4452;50.756;4.472;2022-09-09T12:09:29;5.63;;;1.80;;
8831;SDS011;4452;50.756;4.472;2022-09-09T12:19:39;7.90;;;2.08;;
8831;SDS011;4452;50.756;4.472;2022-09-09T12:25:02;7.82;;;1.88;;
8831;SDS011;4452;50.756;4.472;2022-09-09T12:27:43;7.28;;;1.65;;
8831;SDS011;4452;50.756;4.472;2022-09-09T12:30:21;6.10;;;2.28;;
8831;SDS011;4452;50.756;4.472;2022-09-09T12:32:59;8.73;;;1.90;;
8831;SDS011;4452;50.756;4.472;2022-09-09T12:35:27;7.47;;;2.05;;
8831;SDS011;4452;50.756;4.472;2022-09-09T12:37:57;5.03;;;1.90;;
8831;SDS011;4452;50.756;4.472;2022-09-09T12:43:00;4.30;;;1.80;;
8831;SDS011;4452;50.756;4.472;2022-09-09T12:45:28;7.38;;;1.95;;
8831;SDS011;4452;50.756;4.472;2022-09-09T12:50:22;7.90;;;2.20;;
8831;SDS011;4452;50.756;4.472;2022-09-09T12:52:51;9.38;;;1.73;;
8831;SDS011;4452;50.756;4.472;2022-09-09T12:55:31;4.75;;;1.38;;
8831;SDS011;4452;50.756;4.472;2022-09-09T12:58:00;6.53;;;1.95;;
8831;SDS011;4452;50.756;4.472;2022-09-09T13:00:30;3.47;;;1.35;;
8831;SDS011;4452;50.756;4.472;2022-09-09T13:02:58;3.38;;;1.40;;
8831;SDS011;4452;50.756;4.472;2022-09-09T13:05:34;3.40;;;1.75;;
8831;SDS011;4452;50.756;4.472;2022-09-09T13:08:02;9.45;;;1.63;;
8831;SDS011;4452;50.756;4.472;2022-09-09T13:10:32;4.30;;;1.63;;
8831;SDS011;4452;50.756;4.472;2022-09-09T13:13:04;5.28;;;1.63;;
8831;SDS011;4452;50.756;4.472;2022-09-09T13:15:38;5.80;;;1.58;;
8831;SDS011;4452;50.756;4.472;2022-09-09T13:18:06;3.25;;;1.30;;
8831;SDS011;4452;50.756;4.472;2022-09-09T13:20:37;3.17;;;1.45;;
8831;SDS011;4452;50.756;4.472;2022-09-09T13:23:02;9.32;;;2.10;;
8831;SDS011;4452;50.756;4.472;2022-09-09T13:25:28;4.88;;;1.38;;
8831;SDS011;4452;50.756;4.472;2022-09-09T13:28:01;5.82;;;1.60;;
8831;SDS011;4452;50.756;4.472;2022-09-09T13:30:35;4.53;;;1.60;;
8831;SDS011;4452;50.756;4.472;2022-09-09T13:33:06;2.15;;;1.30;;
8831;SDS011;4452;50.756;4.472;2022-09-09T13:35:46;4.57;;;1.48;;
8831;SDS011;4452;50.756;4.472;2022-09-09T13:38:14;3.13;;;1.02;;
8831;SDS011;4452;50.756;4.472;2022-09-09T13:40:51;2.50;;;1.20;;
8831;SDS011;4452;50.756;4.472;2022-09-09T13:43:24;2.25;;;1.30;;
8831;SDS011;4452;50.756;4.472;2022-09-09T13:45:55;2.15;;;1.27;;
8831;SDS011;4452;50.756;4.472;2022-09-09T13:48:23;3.15;;;1.60;;
8831;SDS011;4452;50.756;4.472;2022-09-09T13:51:21;3.88;;;1.50;;
8831;SDS011;4452;50.756;4.472;2022-09-09T13:53:49;2.03;;;1.23;;
8831;SDS011;4452;50.756;4.472;2022-09-09T13:56:14;4.93;;;1.40;;
8831;SDS011;4452;50.756;4.472;2022-09-09T13:58:41;2.53;;;1.20;;
8831;SDS011;4452;50.756;4.472;2022-09-09T14:01:07;2.22;;;1.17;;
8831;SDS011;4452;50.756;4.472;2022-09-09T14:03:32;2.65;;;1.25;;
8831;SDS011;4452;50.756;4.472;2022-09-09T14:05:58;6.55;;;1.80;;
8831;SDS011;4452;50.756;4.472;2022-09-09T14:08:24;6.38;;;1.40;;
8831;SDS011;4452;50.756;4.472;2022-09-09T14:10:51;5.88;;;1.80;;
8831;SDS011;4452;50.756;4.472;2022-09-09T14:13:17;2.20;;;1.20;;
8831;SDS011;4452;50.756;4.472;2022-09-09T14:15:43;7.15;;;1.75;;
8831;SDS011;4452;50.756;4.472;2022-09-09T14:18:12;2.95;;;1.42;;
8831;SDS011;4452;50.756;4.472;2022-09-09T14:20:38;7.07;;;1.50;;
8831;SDS011;4452;50.756;4.472;2022-09-09T14:23:04;4.35;;;1.60;;
8831;SDS011;4452;50.756;4.472;2022-09-09T14:25:30;10.32;;;2.13;;
8831;SDS011;4452;50.756;4.472;2022-09-09T14:27:56;4.63;;;1.80;;
8831;SDS011;4452;50.756;4.472;2022-09-09T14:30:22;6.78;;;1.92;;
8831;SDS011;4452;50.756;4.472;2022-09-09T14:32:47;4.75;;;1.63;;
8831;SDS011;4452;50.756;4.472;2022-09-09T14:35:13;2.63;;;1.38;;
8831;SDS011;4452;50.756;4.472;2022-09-09T14:37:39;2.90;;;1.38;;
8831;SDS011;4452;50.756;4.472;2022-09-09T14:40:05;3.30;;;1.65;;
8831;SDS011;4452;50.756;4.472;2022-09-09T14:42:31;6.85;;;1.70;;
8831;SDS011;4452;50.756;4.472;2022-09-09T14:44:57;4.00;;;1.40;;
8831;SDS011;4452;50.756;4.472;2022-09-09T14:47:22;5.65;;;1.63;;
8831;SDS011;4452;50.756;4.472;2022-09-09T14:49:48;2.05;;;1.50;;
8831;SDS011;4452;50.756;4.472;2022-09-09T14:52:15;3.63;;;1.60;;
8831;SDS011;4452;50.756;4.472;2022-09-09T14:54:41;2.58;;;1.30;;
8831;SDS011;4452;50.756;4.472;2022-09-09T14:57:07;12.13;;;1.48;;
8831;SDS011;4452;50.756;4.472;2022-09-09T14:59:32;1.90;;;1.27;;
8831;SDS011;4452;50.756;4.472;2022-09-09T15:01:59;2.83;;;1.27;;
8831;SDS011;4452;50.756;4.472;2022-09-09T15:04:29;5.85;;;1.48;;
8831;SDS011;4452;50.756;4.472;2022-09-09T15:06:54;3.58;;;1.25;;
8831;SDS011;4452;50.756;4.472;2022-09-09T15:09:20;4.20;;;1.38;;
8831;SDS011;4452;50.756;4.472;2022-09-09T15:11:46;6.07;;;1.38;;
8831;SDS011;4452;50.756;4.472;2022-09-09T15:14:11;2.70;;;1.40;;
8831;SDS011;4452;50.756;4.472;2022-09-09T15:16:38;5.30;;;1.50;;
8831;SDS011;4452;50.756;4.472;2022-09-09T15:19:04;3.97;;;1.20;;
8831;SDS011;4452;50.756;4.472;2022-09-09T15:21:31;4.82;;;1.40;;
8831;SDS011;4452;50.756;4.472;2022-09-09T15:24:02;4.18;;;1.13;;
8831;SDS011;4452;50.756;4.472;2022-09-09T15:26:28;2.17;;;1.17;;
8831;SDS011;4452;50.756;4.472;2022-09-09T15:28:55;4.47;;;1.30;;
8831;SDS011;4452;50.756;4.472;2022-09-09T15:31:24;3.45;;;1.27;;
8831;SDS011;4452;50.756;4.472;2022-09-09T15:34:02;2.47;;;1.30;;
8831;SDS011;4452;50.756;4.472;2022-09-09T15:36:40;3.03;;;1.13;;
8831;SDS011;4452;50.756;4.472;2022-09-09T15:39:08;2.83;;;1.13;;
8831;SDS011;4452;50.756;4.472;2022-09-09T15:41:37;2.80;;;1.30;;
8831;SDS011;4452;50.756;4.472;2022-09-09T15:44:04;4.05;;;1.25;;
8831;SDS011;4452;50.756;4.472;2022-09-09T15:46:37;2.80;;;1.30;;
8831;SDS011;4452;50.756;4.472;2022-09-09T15:51:43;3.83;;;1.50;;
8831;SDS011;4452;50.756;4.472;2022-09-09T15:54:14;3.10;;;1.42;;
8831;SDS011;4452;50.756;4.472;2022-09-09T15:56:45;6.20;;;1.90;;
8831;SDS011;4452;50.756;4.472;2022-09-09T15:59:15;1.42;;;1.10;;
8831;SDS011;4452;50.756;4.472;2022-09-09T16:01:41;8.27;;;1.80;;
8831;SDS011;4452;50.756;4.472;2022-09-09T16:04:09;7.80;;;1.55;;
8831;SDS011;4452;50.756;4.472;2022-09-09T16:06:34;3.90;;;1.58;;
8831;SDS011;4452;50.756;4.472;2022-09-09T16:09:03;4.63;;;1.70;;
8831;SDS011;4452;50.756;4.472;2022-09-09T16:11:31;2.20;;;1.23;;
8831;SDS011;4452;50.756;4.472;2022-09-09T16:13:59;3.30;;;1.48;;
8831;SDS011;4452;50.756;4.472;2022-09-09T16:16:27;2.90;;;1.60;;
8831;SDS011;4452;50.756;4.472;2022-09-09T16:18:55;4.05;;;1.75;;
8831;SDS011;4452;50.756;4.472;2022-09-09T16:21:29;7.13;;;1.70;;
8831;SDS011;4452;50.756;4.472;2022-09-09T16:23:57;4.55;;;1.92;;
8831;SDS011;4452;50.756;4.472;2022-09-09T16:26:24;10.13;;;1.70;;
8831;SDS011;4452;50.756;4.472;2022-09-09T16:28:50;9.30;;;1.63;;
8831;SDS011;4452;50.756;4.472;2022-09-09T16:31:20;8.18;;;1.70;;
8831;SDS011;4452;50.756;4.472;2022-09-09T16:33:47;4.72;;;1.58;;
8831;SDS011;4452;50.756;4.472;2022-09-09T16:36:21;3.80;;;1.42;;
8831;SDS011;4452;50.756;4.472;2022-09-09T16:38:51;6.07;;;1.50;;
8831;SDS011;4452;50.756;4.472;2022-09-09T16:41:19;4.95;;;1.85;;
8831;SDS011;4452;50.756;4.472;2022-09-09T16:43:45;6.32;;;1.58;;
8831;SDS011;4452;50.756;4.472;2022-09-09T16:48:40;4.22;;;1.35;;
8831;SDS011;4452;50.756;4.472;2022-09-09T16:51:08;3.30;;;1.20;;
8831;SDS011;4452;50.756;4.472;2022-09-09T16:54:03;3.30;;;1.20;;
8831;SDS011;4452;50.756;4.472;2022-09-09T16:56:34;3.17;;;1.08;;
8831;SDS011;4452;50.756;4.472;2022-09-09T16:59:03;4.32;;;1.20;;
8831;SDS011;4452;50.756;4.472;2022-09-09T17:01:32;3.42;;;1.67;;
8831;SDS011;4452;50.756;4.472;2022-09-09T17:04:02;5.03;;;1.30;;
8831;SDS011;4452;50.756;4.472;2022-09-09T17:06:30;3.50;;;1.23;;
8831;SDS011;4452;50.756;4.472;2022-09-09T17:09:00;3.35;;;1.30;;
8831;SDS011;4452;50.756;4.472;2022-09-09T17:11:27;4.10;;;1.17;;
8831;SDS011;4452;50.756;4.472;2022-09-09T17:13:54;4.80;;;1.35;;
8831;SDS011;4452;50.756;4.472;2022-09-09T17:16:21;3.22;;;1.30;;
8831;SDS011;4452;50.756;4.472;2022-09-09T17:18:49;3.88;;;1.38;;
8831;SDS011;4452;50.756;4.472;2022-09-09T17:21:17;2.83;;;1.50;;
8831;SDS011;4452;50.756;4.472;2022-09-09T17:23:45;4.32;;;1.35;;
8831;SDS011;4452;50.756;4.472;2022-09-09T17:26:12;5.80;;;1.33;;
8831;SDS011;4452;50.756;4.472;2022-09-09T17:28:40;5.55;;;1.45;;
8831;SDS011;4452;50.756;4.472;2022-09-09T17:31:07;3.50;;;1.10;;
8831;SDS011;4452;50.756;4.472;2022-09-09T17:33:35;3.92;;;1.52;;
8831;SDS011;4452;50.756;4.472;2022-09-09T17:36:09;7.72;;;1.58;;
8831;SDS011;4452;50.756;4.472;2022-09-09T17:38:37;9.20;;;1.33;;
8831;SDS011;4452;50.756;4.472;2022-09-09T17:41:14;2.60;;;1.10;;
8831;SDS011;4452;50.756;4.472;2022-09-09T17:43:41;8.20;;;1.30;;
8831;SDS011;4452;50.756;4.472;2022-09-09T17:46:09;4.95;;;1.35;;
8831;SDS011;4452;50.756;4.472;2022-09-09T17:48:41;4.68;;;1.27;;
8831;SDS011;4452;50.756;4.472;2022-09-09T17:51:08;5.60;;;1.75;;
8831;SDS011;4452;50.756;4.472;2022-09-09T17:53:39;5.65;;;1.23;;